Time;durP1;ratioP1;P1;durP2;ratioP2;P2;SDS_P1;SDS_P2;PMS_P1;PMS_P2;Temp;Humidity;BMP_temperature;BMP_pressure;BME280_temperature;BME280_humidity;BME280_pressure;Samples;Min_cycle;Max_cycle;Signal;HPM_P1;HPM_P2
2023/03/25 00:02:00;;;;;;;2.15;0.95;;;;;;;8.64;100.00;97278.28;15276506;19;20362;-56
2023/03/25 00:07:24;;;;;;;2.97;1.10;;;;;;;8.59;100.00;97272.63;15276038;19;20597;-52
2023/03/25 00:12:52;;;;;;;3.25;1.30;;;;;;;8.53;100.00;97257.22;15274920;19;20021;-48
2023/03/25 00:18:19;;;;;;;3.92;1.20;;;;;;;8.57;100.00;97263.91;15276832;19;20367;-53
2023/03/25 00:23:45;;;;;;;2.08;1.00;;;;;;;8.45;100.00;97259.94;15274855;19;20073;-53
2023/03/25 00:29:19;;;;;;;2.75;1.08;;;;;;;8.39;100.00;97249.91;15278136;19;20028;-54
2023/03/25 00:34:46;;;;;;;1.63;0.90;;;;;;;8.39;100.00;97255.28;15276662;19;20015;-55
2023/03/25 00:40:10;;;;;;;3.70;1.08;;;;;;;8.36;100.00;97258.31;15271989;19;20104;-55
2023/03/25 00:45:38;;;;;;;3.72;1.40;;;;;;;8.33;100.00;97259.50;15275828;19;20046;-54
2023/03/25 00:51:12;;;;;;;2.90;1.00;;;;;;;8.37;100.00;97255.44;15274791;19;20037;-52
2023/03/25 00:56:37;;;;;;;3.38;0.90;;;;;;;8.43;100.00;97264.63;15274479;19;20010;-54
2023/03/25 01:02:05;;;;;;;3.17;0.90;;;;;;;8.42;100.00;97250.41;15272345;19;20362;-56
2023/03/25 01:07:31;;;;;;;1.88;0.80;;;;;;;8.47;100.00;97236.44;15274014;19;20045;-49
2023/03/25 01:12:55;;;;;;;3.38;0.80;;;;;;;8.49;100.00;97229.09;15269171;19;20526;-51
2023/03/25 01:18:23;;;;;;;3.53;1.10;;;;;;;8.47;100.00;97237.28;15273547;19;20022;-50
2023/03/25 01:23:47;;;;;;;2.72;1.00;;;;;;;8.41;100.00;97226.44;15272720;19;20036;-51
2023/03/25 01:29:12;;;;;;;2.03;0.80;;;;;;;8.37;100.00;97214.38;15270156;19;20091;-53
2023/03/25 01:34:41;;;;;;;3.20;1.00;;;;;;;8.41;100.00;97194.22;15269164;19;20014;-55
2023/03/25 01:40:08;;;;;;;1.63;0.80;;;;;;;8.37;100.00;97203.63;15270488;19;20018;-49
2023/03/25 01:45:34;;;;;;;2.47;1.08;;;;;;;8.37;100.00;97209.00;15263302;19;20022;-54
2023/03/25 01:51:14;;;;;;;3.05;0.90;;;;;;;8.35;100.00;97176.97;15270326;19;20018;-53
2023/03/25 01:56:45;;;;;;;2.60;0.93;;;;;;;8.37;100.00;97182.16;15270511;19;20073;-53
2023/03/25 02:02:14;;;;;;;3.97;1.20;;;;;;;8.37;100.00;97176.81;15267324;19;20018;-49
2023/03/25 02:07:46;;;;;;;1.52;0.90;;;;;;;8.33;100.00;97176.31;15266537;19;20510;-51
2023/03/25 02:13:14;;;;;;;3.45;0.98;;;;;;;8.36;100.00;97178.63;15272090;19;20041;-50
2023/03/25 02:18:50;;;;;;;1.58;0.88;;;;;;;8.47;100.00;97172.88;15278592;19;20027;-50
2023/03/25 02:24:52;;;;;;;2.00;0.93;;;;;;;8.52;100.00;97164.31;15283189;19;20018;-50
2023/03/25 02:30:32;;;;;;;;;;;;;;;8.54;100.00;97156.91;15284504;19;20021;-52
2023/03/25 02:36:28;;;;;;;1.75;0.90;;;;;;;8.60;100.00;97160.72;15281397;19;19922;-52
2023/03/25 02:42:03;;;;;;;2.05;0.90;;;;;;;8.64;100.00;97162.84;15275562;19;20462;-54
2023/03/25 02:47:32;;;;;;;3.50;0.90;;;;;;;8.77;100.00;97154.22;15280840;19;20029;-51
2023/03/25 02:53:09;;;;;;;1.63;0.80;;;;;;;8.84;100.00;97151.63;15279041;19;20025;-56
2023/03/25 02:58:37;;;;;;;1.83;0.70;;;;;;;8.89;100.00;97148.41;15282649;19;20353;-52
2023/03/25 03:04:03;;;;;;;2.72;0.82;;;;;;;8.88;100.00;97146.72;15278223;19;20344;-54
2023/03/25 03:09:37;;;;;;;1.80;0.50;;;;;;;8.88;100.00;97150.22;15280517;19;20475;-53
2023/03/25 03:15:17;;;;;;;2.33;0.95;;;;;;;8.91;100.00;97149.88;15282698;19;20033;-50
2023/03/25 03:20:51;;;;;;;1.63;0.68;;;;;;;8.93;100.00;97155.91;15276839;19;20021;-56
2023/03/25 03:26:22;;;;;;;1.83;0.70;;;;;;;8.93;100.00;97155.09;15278347;19;20011;-50
2023/03/25 03:31:55;;;;;;;1.05;0.63;;;;;;;8.93;100.00;97158.59;15277078;19;20029;-52
2023/03/25 03:37:29;;;;;;;1.77;0.65;;;;;;;8.97;100.00;97160.91;15280528;19;20362;-56
2023/03/25 03:42:58;;;;;;;1.13;0.55;;;;;;;8.96;100.00;97175.38;15275914;19;20090;-54
2023/03/25 03:48:32;;;;;;;2.15;0.60;;;;;;;8.95;100.00;97185.25;15279382;19;20018;-57
2023/03/25 03:54:07;;;;;;;2.40;0.90;;;;;;;8.97;100.00;97163.59;15278251;19;20029;-53
2023/03/25 03:59:41;;;;;;;1.80;0.47;;;;;;;8.99;100.00;97161.59;15277340;19;20024;-55
2023/03/25 04:05:10;;;;;;;0.50;0.30;;;;;;;8.91;100.00;97173.22;15274220;19;20022;-52
2023/03/25 04:10:41;;;;;;;1.15;0.40;;;;;;;8.74;100.00;97177.91;15275600;19;20372;-52
2023/03/25 04:16:08;;;;;;;0.80;0.40;;;;;;;8.60;100.00;97187.56;15281226;19;20028;-53
2023/03/25 04:21:35;;;;;;;1.35;0.40;;;;;;;8.47;100.00;97193.50;15274956;19;20021;-56
2023/03/25 04:27:03;;;;;;;1.58;0.32;;;;;;;8.36;100.00;97210.84;15273969;19;20021;-54
2023/03/25 04:32:30;;;;;;;0.73;0.25;;;;;;;8.36;100.00;97185.88;15271704;19;20574;-55
2023/03/25 04:37:57;;;;;;;1.17;0.40;;;;;;;8.41;100.00;97204.97;15277968;19;20014;-52
2023/03/25 04:43:21;;;;;;;1.33;0.40;;;;;;;8.41;100.00;97205.78;15274141;19;20093;-53
2023/03/25 04:48:46;;;;;;;0.70;0.40;;;;;;;8.25;100.00;97211.25;15274998;19;20010;-55
2023/03/25 04:54:14;;;;;;;0.50;0.30;;;;;;;8.29;100.00;97201.84;15277672;19;20022;-56
2023/03/25 04:59:39;;;;;;;0.93;0.30;;;;;;;8.15;100.00;97200.75;15271694;19;20029;-53
2023/03/25 05:05:03;;;;;;;0.85;0.40;;;;;;;8.01;100.00;97205.84;15272073;19;20030;-51
2023/03/25 05:10:34;;;;;;;1.92;0.30;;;;;;;7.94;100.00;97204.03;15273127;19;20017;-49
2023/03/25 05:15:58;;;;;;;1.10;0.35;;;;;;;7.94;100.00;97204.84;15274666;19;20035;-49
2023/03/25 05:21:23;;;;;;;1.67;0.57;;;;;;;7.90;100.00;97213.41;15271617;19;20475;-49
2023/03/25 05:26:44;;;;;;;1.67;0.60;;;;;;;7.72;100.00;97211.81;15269681;19;20371;-53
2023/03/25 05:32:08;;;;;;;1.47;0.40;;;;;;;7.67;100.00;97209.66;15267900;19;20014;-51
2023/03/25 05:37:33;;;;;;;1.60;0.50;;;;;;;7.65;100.00;97221.56;15274393;19;20261;-54
2023/03/25 05:43:02;;;;;;;1.55;0.50;;;;;;;7.68;100.00;97222.06;15270789;19;20025;-51
2023/03/25 05:48:26;;;;;;;1.48;0.60;;;;;;;7.72;100.00;97223.38;15272785;19;20081;-49
2023/03/25 05:53:57;;;;;;;1.48;0.50;;;;;;;7.73;100.00;97240.31;15276790;19;20483;-49
2023/03/25 05:59:24;;;;;;;1.27;0.53;;;;;;;7.74;100.00;97249.19;15283207;19;20990;-51
2023/03/25 06:04:50;;;;;;;1.30;0.45;;;;;;;7.72;100.00;97252.88;15277933;19;20061;-51
2023/03/25 06:10:17;;;;;;;1.92;0.70;;;;;;;7.64;100.00;97263.63;15283512;19;20037;-51
2023/03/25 06:15:44;;;;;;;1.65;0.60;;;;;;;7.63;100.00;97271.84;15284845;19;20021;-48
2023/03/25 06:21:10;;;;;;;1.75;0.57;;;;;;;7.59;100.00;97275.84;15279438;19;20351;-49
2023/03/25 06:26:36;;;;;;;2.90;0.80;;;;;;;7.55;100.00;97267.31;15277513;19;20028;-54
2023/03/25 06:32:05;;;;;;;2.88;0.60;;;;;;;7.49;100.00;97281.38;15278226;19;20010;-50
2023/03/25 06:37:29;;;;;;;1.30;0.43;;;;;;;7.35;100.00;97289.09;15278381;19;20350;-49
2023/03/25 06:43:00;;;;;;;1.63;0.70;;;;;;;7.34;100.00;97289.28;15280351;19;20086;-51
2023/03/25 06:49:00;;;;;;;2.45;0.68;;;;;;;7.18;100.00;97290.97;15279412;19;20021;-49
2023/03/25 06:54:26;;;;;;;2.83;0.73;;;;;;;7.15;100.00;97301.19;15281637;19;20451;-50
2023/03/25 06:59:50;;;;;;;1.95;0.55;;;;;;;7.09;100.00;97314.25;15278982;19;20085;-49
2023/03/25 07:05:17;;;;;;;2.78;0.73;;;;;;;7.02;100.00;97312.41;15280437;19;20094;-50
2023/03/25 07:10:42;;;;;;;1.17;0.60;;;;;;;6.97;100.00;97323.59;15279452;19;20359;-54
2023/03/25 07:16:08;;;;;;;1.17;0.60;;;;;;;6.98;100.00;97317.25;15281208;19;20081;-48
2023/03/25 07:21:35;;;;;;;1.65;0.47;;;;;;;6.96;100.00;97329.97;15272320;19;20021;-49
2023/03/25 07:27:00;;;;;;;1.17;0.90;;;;;;;6.99;100.00;97340.34;15277492;19;20018;-50
2023/03/25 07:32:29;;;;;;;1.98;0.50;;;;;;;6.94;100.00;97356.06;15275255;19;20036;-50
2023/03/25 07:37:56;;;;;;;1.55;0.50;;;;;;;7.02;100.00;97348.03;15275272;19;20014;-55
2023/03/25 07:43:21;;;;;;;0.93;0.50;;;;;;;7.03;100.00;97355.06;15275624;19;20759;-53
2023/03/25 07:49:02;;;;;;;2.33;0.68;;;;;;;7.03;100.00;97359.59;15265840;19;20034;-55
2023/03/25 07:54:37;;;;;;;1.58;0.60;;;;;;;7.16;100.00;97351.06;15268867;19;20078;-55
2023/03/25 08:00:04;;;;;;;1.27;0.50;;;;;;;7.32;100.00;97328.81;15266374;19;20711;-54
2023/03/25 08:05:28;;;;;;;1.40;0.40;;;;;;;7.57;100.00;97324.28;15275227;19;20020;-50
2023/03/25 08:10:56;;;;;;;0.55;0.25;;;;;;;7.84;100.00;97314.16;15269380;19;20015;-48
2023/03/25 08:16:23;;;;;;;1.10;0.38;;;;;;;8.09;100.00;97319.47;15260834;19;20021;-54
2023/03/25 08:21:48;;;;;;;1.05;0.20;;;;;;;8.30;100.00;97333.13;15260813;19;20022;-50
2023/03/25 08:27:15;;;;;;;0.55;0.40;;;;;;;8.40;100.00;97314.13;15266114;19;20022;-51
2023/03/25 08:32:40;;;;;;;0.95;0.30;;;;;;;8.40;100.00;97307.94;15273734;19;20066;-49
2023/03/25 08:38:05;;;;;;;0.40;0.10;;;;;;;8.44;100.00;97320.84;15277654;19;20014;-50
2023/03/25 08:43:33;;;;;;;0.65;0.25;;;;;;;8.40;100.00;97324.88;15274122;19;20538;-53
2023/03/25 08:49:01;;;;;;;0.40;0.27;;;;;;;8.23;100.00;97332.16;15277176;19;20367;-49
2023/03/25 08:54:32;;;;;;;0.32;0.20;;;;;;;8.36;100.00;97309.31;15276515;19;20018;-51
2023/03/25 08:59:59;;;;;;;1.47;0.20;;;;;;;8.53;100.00;97310.09;15272611;19;20070;-49
2023/03/25 09:05:25;;;;;;;0.10;0.10;;;;;;;8.46;100.00;97300.03;15274215;19;20085;-48
2023/03/25 09:10:51;;;;;;;0.15;0.05;;;;;;;8.32;100.00;97320.38;15275064;19;20422;-47
2023/03/25 09:16:18;;;;;;;0.28;0.10;;;;;;;8.40;100.00;97289.16;15271807;19;20024;-50
2023/03/25 09:21:42;;;;;;;0.50;0.20;;;;;;;8.75;100.00;97285.13;15274559;19;20078;-47
2023/03/25 09:27:07;;;;;;;0.85;0.30;;;;;;;9.02;100.00;97277.56;15280687;19;20029;-48
2023/03/25 09:32:34;;;;;;;0.90;0.20;;;;;;;9.23;100.00;97279.56;15281333;19;20617;-48
2023/03/25 09:37:59;;;;;;;0.40;0.20;;;;;;;9.52;100.00;97282.53;15288255;19;20769;-49
2023/03/25 09:43:37;;;;;;;0.30;0.10;;;;;;;9.69;100.00;97277.81;15287555;19;20090;-51
2023/03/25 09:49:05;;;;;;;0.85;0.30;;;;;;;9.84;100.00;97270.56;15283603;19;20074;-48
2023/03/25 09:54:40;;;;;;;0.52;0.25;;;;;;;10.01;100.00;97281.16;15291745;19;20017;-49
2023/03/25 10:00:07;;;;;;;0.32;0.30;;;;;;;9.85;100.00;97291.06;15283757;19;20462;-49
2023/03/25 10:05:57;;;;;;;0.95;0.30;;;;;;;9.80;100.00;97279.19;15284209;19;20998;-51
2023/03/25 10:11:32;;;;;;;0.65;0.30;;;;;;;9.90;100.00;97284.31;15283986;19;20024;-51
2023/03/25 10:17:10;;;;;;;0.88;0.30;;;;;;;10.09;100.00;97293.69;15286898;19;20035;-48
2023/03/25 10:22:46;;;;;;;0.43;0.30;;;;;;;9.97;100.00;97287.91;15277712;19;20022;-53
2023/03/25 10:28:13;;;;;;;0.82;0.30;;;;;;;10.40;100.00;97276.50;15281320;19;20018;-51
2023/03/25 10:33:41;;;;;;;0.25;0.20;;;;;;;10.61;100.00;97275.72;15287637;19;20014;-49
2023/03/25 10:39:12;;;;;;;0.68;0.30;;;;;;;10.78;100.00;97285.22;15284652;19;20070;-49
2023/03/25 10:44:37;;;;;;;0.70;0.20;;;;;;;10.54;100.00;97278.34;15285016;19;20477;-49
2023/03/25 10:50:03;;;;;;;0.75;0.32;;;;;;;10.50;100.00;97276.22;15282962;19;20025;-51
2023/03/25 10:55:36;;;;;;;0.77;0.30;;;;;;;10.51;100.00;97292.16;15281380;19;20031;-56
2023/03/25 11:01:01;;;;;;;0.57;0.10;;;;;;;10.72;100.00;97261.75;15283795;19;20014;-53
2023/03/25 11:06:30;;;;;;;1.40;0.25;;;;;;;10.72;100.00;97275.22;15280870;19;20010;-49
2023/03/25 11:11:58;;;;;;;0.43;0.28;;;;;;;10.83;100.00;97286.53;15279558;19;20033;-53
2023/03/25 11:17:24;;;;;;;0.90;0.30;;;;;;;10.91;100.00;97257.59;15284875;19;20021;-53
2023/03/25 11:22:56;;;;;;;1.10;0.40;;;;;;;11.12;100.00;97249.69;15276801;19;20010;-50
2023/03/25 11:28:34;;;;;;;1.13;0.43;;;;;;;10.98;100.00;97243.34;15277507;19;20070;-48
2023/03/25 11:34:12;;;;;;;1.42;0.50;;;;;;;10.92;100.00;97228.78;15280698;19;20029;-52
2023/03/25 11:39:41;;;;;;;1.70;0.70;;;;;;;10.88;100.00;97238.28;15277473;19;20361;-47
2023/03/25 11:45:09;;;;;;;1.80;0.70;;;;;;;11.06;100.00;97235.97;15278405;19;20506;-48
2023/03/25 11:50:36;;;;;;;2.40;0.70;;;;;;;10.95;100.00;97223.00;15275174;19;20082;-53
2023/03/25 11:56:04;;;;;;;2.38;0.75;;;;;;;10.99;100.00;97213.53;15276102;19;20419;-51
2023/03/25 12:01:42;;;;;;;1.92;0.60;;;;;;;11.02;100.00;97206.91;15278617;19;20014;-52
2023/03/25 12:07:09;;;;;;;1.88;0.73;;;;;;;10.90;100.00;97196.66;15276870;19;20466;-49
2023/03/25 12:12:44;;;;;;;2.33;0.70;;;;;;;11.20;100.00;97179.47;15279602;19;20043;-47
2023/03/25 12:18:26;;;;;;;2.22;0.70;;;;;;;11.39;100.00;97180.66;15281663;19;20015;-49
2023/03/25 12:24:04;;;;;;;2.30;0.73;;;;;;;11.61;100.00;97167.09;15278697;19;20010;-51
2023/03/25 12:29:38;;;;;;;2.47;0.77;;;;;;;11.26;100.00;97202.94;15272349;19;20018;-49
2023/03/25 12:35:22;;;;;;;2.67;0.50;;;;;;;9.20;100.00;97282.63;15278978;19;20011;-52
2023/03/25 12:40:59;;;;;;;0.52;0.17;;;;;;;7.24;100.00;97303.69;15276035;19;20481;-48
2023/03/25 12:46:42;;;;;;;0.68;0.13;;;;;;;6.82;100.00;97274.38;15274864;19;20022;-56
2023/03/25 12:52:18;;;;;;;0.10;0.10;;;;;;;6.69;100.00;97275.72;15273980;19;20351;-51
2023/03/25 12:57:54;;;;;;;1.45;0.20;;;;;;;6.73;100.00;97270.84;15276761;19;20010;-48
2023/03/25 13:03:56;;;;;;;0.82;0.20;;;;;;;6.84;100.00;97280.41;15272286;19;20077;-55
2023/03/25 13:09:27;;;;;;;0.20;0.10;;;;;;;6.89;100.00;97275.38;15273866;19;20015;-48
2023/03/25 13:15:00;;;;;;;0.30;0.10;;;;;;;6.98;100.00;97266.38;15274298;19;20019;-51
2023/03/25 13:20:26;;;;;;;0.20;0.20;;;;;;;7.05;100.00;97263.88;15279326;19;20014;-56
2023/03/25 13:25:58;;;;;;;0.17;0.10;;;;;;;7.26;100.00;97247.25;15308207;19;20433;-56
2023/03/25 13:31:27;;;;;;;0.30;0.10;;;;;;;7.66;100.00;97244.66;15265036;19;20021;-54
2023/03/25 13:37:05;;;;;;;1.80;0.40;;;;;;;8.01;100.00;97238.03;15265616;19;20018;-52
2023/03/25 13:42:40;;;;;;;0.60;0.28;;;;;;;8.18;100.00;97229.88;15275682;19;20022;-58
2023/03/25 13:48:13;;;;;;;0.80;0.25;;;;;;;8.55;100.00;97233.72;15264549;19;20029;-53
2023/03/25 13:53:51;;;;;;;1.55;0.43;;;;;;;8.80;100.00;97217.44;15264191;19;20010;-50
2023/03/25 13:59:55;;;;;;;1.15;0.30;;;;;;;8.93;100.00;97215.00;15265735;19;20023;-57
2023/03/25 14:05:59;;;;;;;0.93;0.40;;;;;;;9.10;100.00;97228.31;15258915;19;20014;-49
2023/03/25 14:11:29;;;;;;;1.50;0.50;;;;;;;9.16;100.00;97211.44;15268807;19;20342;-51
2023/03/25 14:16:58;;;;;;;1.60;0.40;;;;;;;9.68;100.00;97212.41;15283111;19;20021;-49
2023/03/25 14:22:30;;;;;;;2.08;0.60;;;;;;;10.17;100.00;97223.59;15277418;19;20344;-51
2023/03/25 14:27:58;;;;;;;1.25;0.50;;;;;;;10.32;100.00;97213.66;15277916;19;20053;-52
2023/03/25 14:33:23;;;;;;;1.38;0.50;;;;;;;10.21;100.00;97219.53;15281357;19;20010;-51
2023/03/25 14:39:05;;;;;;;2.03;0.60;;;;;;;10.15;100.00;97221.13;15275079;19;20014;-53
2023/03/25 14:44:32;;;;;;;3.30;0.60;;;;;;;10.89;100.00;97203.06;15282533;19;20017;-49
2023/03/25 14:50:01;;;;;;;1.77;0.60;;;;;;;10.74;100.00;97224.69;15279407;19;20467;-51
2023/03/25 14:55:40;;;;;;;1.23;0.50;;;;;;;10.73;100.00;97198.78;15282544;19;20019;-48
2023/03/25 15:01:11;;;;;;;2.10;0.68;;;;;;;10.77;100.00;97194.66;15283633;19;20082;-48
2023/03/25 15:06:42;;;;;;;1.73;0.60;;;;;;;10.63;100.00;97199.09;15280889;19;20698;-48
2023/03/25 15:12:17;;;;;;;1.70;0.60;;;;;;;10.91;100.00;97209.09;15268909;19;20026;-49
2023/03/25 15:17:52;;;;;;;1.00;0.43;;;;;;;11.09;100.00;97187.06;15273846;19;20041;-52
2023/03/25 15:23:35;;;;;;;1.02;0.50;;;;;;;11.01;100.00;97189.88;15271987;19;20033;-50
2023/03/25 15:29:30;;;;;;;1.77;0.55;;;;;;;11.41;100.00;97183.97;15276224;19;20057;-53
2023/03/25 15:35:14;;;;;;;1.88;0.40;;;;;;;11.54;100.00;97191.31;15279006;19;20018;-50
2023/03/25 15:40:42;;;;;;;1.20;0.50;;;;;;;11.38;100.00;97189.78;15276813;19;20035;-53
2023/03/25 15:46:30;;;;;;;1.63;0.50;;;;;;;11.30;100.00;97177.25;15269994;19;20025;-49
2023/03/25 15:52:11;;;;;;;1.15;0.55;;;;;;;11.23;100.00;97169.13;15275892;19;20032;-48
2023/03/25 15:57:44;;;;;;;1.63;0.60;;;;;;;11.17;100.00;97167.19;15277063;19;20023;-50
2023/03/25 16:03:20;;;;;;;1.70;0.57;;;;;;;11.03;100.00;97190.53;15277537;19;20367;-52
2023/03/25 16:08:50;;;;;;;1.38;0.70;;;;;;;10.90;100.00;97190.41;15274619;19;20014;-49
2023/03/25 16:14:20;;;;;;;2.10;0.50;;;;;;;10.89;100.00;97186.06;15270965;19;20660;-50
2023/03/25 16:19:52;;;;;;;3.42;0.60;;;;;;;10.83;100.00;97186.84;15275603;19;20025;-47
2023/03/25 16:25:22;;;;;;;1.95;0.50;;;;;;;10.63;100.00;97187.50;15279026;19;20101;-46
2023/03/25 16:30:52;;;;;;;1.50;0.60;;;;;;;10.44;100.00;97184.38;15274269;19;19978;-48
2023/03/25 16:36:24;;;;;;;1.37;0.70;;;;;;;10.33;100.00;97192.94;15273256;19;20018;-52
2023/03/25 16:41:52;;;;;;;1.27;0.45;;;;;;;10.29;100.00;97186.28;15272335;19;20050;-46
2023/03/25 16:47:20;;;;;;;1.27;0.40;;;;;;;10.30;100.00;97185.22;15269229;19;20013;-49
2023/03/25 16:53:01;;;;;;;1.38;0.50;;;;;;;10.44;100.00;97222.09;15250699;19;20029;-49
2023/03/25 16:58:28;;;;;;;0.40;0.30;;;;;;;10.22;100.00;97231.13;15261962;19;20718;-46
2023/03/25 17:03:55;;;;;;;0.73;0.30;;;;;;;10.12;100.00;97207.19;15271042;19;20038;-48
2023/03/25 17:09:25;;;;;;;1.00;0.40;;;;;;;9.90;100.00;97209.00;15268408;19;20077;-48
2023/03/25 17:14:52;;;;;;;1.75;0.30;;;;;;;9.76;100.00;97208.81;15270698;19;20074;-48
2023/03/25 17:20:20;;;;;;;0.88;0.60;;;;;;;9.55;100.00;97213.06;15267557;19;20037;-47
2023/03/25 17:25:59;;;;;;;0.82;0.35;;;;;;;9.48;100.00;97209.44;15271129;19;20363;-47
2023/03/25 17:31:31;;;;;;;1.35;0.52;;;;;;;9.33;100.00;97213.97;15269188;19;20014;-47
2023/03/25 17:37:07;;;;;;;1.25;0.30;;;;;;;9.17;100.00;97215.81;15270697;19;20030;-47
2023/03/25 17:42:37;;;;;;;1.13;0.47;;;;;;;9.14;100.00;97226.09;15263950;19;20471;-49
2023/03/25 17:48:01;;;;;;;1.58;0.73;;;;;;;9.13;100.00;97235.97;15272346;19;20032;-51
2023/03/25 17:53:33;;;;;;;3.20;1.05;;;;;;;9.03;100.00;97243.47;15277094;19;20614;-46
2023/03/25 17:59:03;;;;;;;1.17;0.80;;;;;;;9.01;100.00;97248.16;15279487;19;20358;-47
2023/03/25 18:04:28;;;;;;;1.95;0.70;;;;;;;8.97;100.00;97266.50;15282648;19;20038;-47
2023/03/25 18:09:53;;;;;;;0.88;0.50;;;;;;;9.00;100.00;97287.66;15276476;19;20081;-50
2023/03/25 18:15:20;;;;;;;2.63;0.70;;;;;;;9.08;100.00;97292.13;15281511;19;20019;-49
2023/03/25 18:20:48;;;;;;;1.92;0.65;;;;;;;8.81;100.00;97347.22;15279986;19;20022;-52
2023/03/25 18:26:19;;;;;;;1.08;0.57;;;;;;;8.09;100.00;97328.34;15279180;19;20014;-51
2023/03/25 18:31:46;;;;;;;1.50;0.70;;;;;;;7.62;100.00;97321.91;15278427;19;20041;-53
2023/03/25 18:37:11;;;;;;;1.40;0.75;;;;;;;7.41;100.00;97325.09;15281725;19;20138;-52
2023/03/25 18:42:36;;;;;;;1.73;0.40;;;;;;;7.29;100.00;97321.94;15276375;19;20023;-51
2023/03/25 18:48:03;;;;;;;0.98;0.40;;;;;;;7.22;100.00;97323.63;15279403;19;20043;-53
2023/03/25 18:53:36;;;;;;;1.55;0.50;;;;;;;7.14;100.00;97316.44;15274372;19;20018;-50
2023/03/25 18:59:01;;;;;;;1.45;0.57;;;;;;;7.13;100.00;97321.94;15277002;19;20011;-52
2023/03/25 19:04:30;;;;;;;1.70;0.50;;;;;;;7.04;100.00;97351.38;15283501;19;20011;-52
2023/03/25 19:10:04;;;;;;;1.65;0.60;;;;;;;6.99;100.00;97348.38;15276515;19;20022;-51
2023/03/25 19:15:31;;;;;;;1.52;0.60;;;;;;;7.01;100.00;97349.03;15283226;19;20082;-50
2023/03/25 19:20:59;;;;;;;1.30;0.60;;;;;;;7.12;100.00;97339.00;15280742;19;20033;-49
2023/03/25 19:26:24;;;;;;;2.45;0.93;;;;;;;7.11;100.00;97348.06;15280630;19;20372;-51
2023/03/25 19:31:49;;;;;;;1.88;0.88;;;;;;;7.04;100.00;97354.06;15273009;19;21526;-51
2023/03/25 19:37:16;;;;;;;1.77;0.75;;;;;;;7.03;100.00;97330.13;15276829;19;20036;-50
2023/03/25 19:42:41;;;;;;;1.95;0.70;;;;;;;7.04;100.00;97321.94;15269609;19;20435;-49
2023/03/25 19:48:05;;;;;;;2.53;0.70;;;;;;;7.11;100.00;97321.28;15273936;19;20019;-51
2023/03/25 19:53:39;;;;;;;1.52;0.80;;;;;;;7.14;100.00;97326.28;15269949;19;20479;-53
2023/03/25 19:59:04;;;;;;;2.38;0.70;;;;;;;7.27;100.00;97331.16;15273487;19;20078;-49
2023/03/25 20:04:28;;;;;;;2.65;0.80;;;;;;;7.33;100.00;97320.63;15268580;19;20014;-48
2023/03/25 20:09:56;;;;;;;3.58;0.82;;;;;;;7.42;100.00;97326.78;15269479;19;20032;-48
2023/03/25 20:15:36;;;;;;;3.75;1.00;;;;;;;7.48;100.00;97327.94;15277462;19;20022;-52
2023/03/25 20:21:01;;;;;;;2.13;0.88;;;;;;;7.56;100.00;97344.88;15274413;19;20018;-47
2023/03/25 20:26:28;;;;;;;2.80;0.90;;;;;;;7.58;100.00;97338.50;15276298;19;20464;-50
2023/03/25 20:31:55;;;;;;;2.38;0.70;;;;;;;7.55;100.00;97339.69;15275460;19;20079;-51
2023/03/25 20:37:19;;;;;;;3.00;0.88;;;;;;;7.58;100.00;97328.63;15268222;19;20461;-50
2023/03/25 20:42:49;;;;;;;2.20;0.70;;;;;;;7.43;100.00;97338.34;15268630;19;20048;-49
2023/03/25 20:48:14;;;;;;;2.13;0.70;;;;;;;7.56;100.00;97334.16;15272265;19;20018;-51
2023/03/25 20:53:45;;;;;;;1.55;0.70;;;;;;;7.59;100.00;97346.38;15255181;19;20022;-54
2023/03/25 20:59:20;;;;;;;3.03;0.70;;;;;;;7.71;100.00;97345.00;15261962;19;20037;-53
2023/03/25 21:04:45;;;;;;;1.80;0.60;;;;;;;7.66;100.00;97342.03;15237159;19;20120;-55
2023/03/25 21:10:10;;;;;;;1.90;0.80;;;;;;;7.56;100.00;97336.81;15260377;19;20743;-52
2023/03/25 21:15:41;;;;;;;1.75;0.68;;;;;;;7.41;100.00;97327.78;15262104;19;20019;-54
2023/03/25 21:21:08;;;;;;;2.23;0.57;;;;;;;7.31;100.00;97314.59;15265963;19;20018;-54
2023/03/25 21:26:35;;;;;;;1.27;0.50;;;;;;;7.27;100.00;97323.13;15276615;19;20078;-54
2023/03/25 21:32:02;;;;;;;1.90;0.60;;;;;;;7.18;100.00;97324.94;15246662;19;20584;-51
2023/03/25 21:37:27;;;;;;;1.50;0.50;;;;;;;7.14;100.00;97318.25;15274752;19;20018;-54
2023/03/25 21:42:53;;;;;;;2.53;0.70;;;;;;;7.11;100.00;97314.06;15268918;19;20014;-52
2023/03/25 21:48:22;;;;;;;1.50;0.50;;;;;;;7.18;100.00;97323.09;15273145;19;20028;-50
2023/03/25 21:53:57;;;;;;;1.30;0.60;;;;;;;7.14;100.00;97327.13;15268603;19;20032;-51
2023/03/25 21:59:22;;;;;;;2.53;0.70;;;;;;;7.01;100.00;97327.59;15277052;19;20094;-51
2023/03/25 22:04:50;;;;;;;1.75;0.60;;;;;;;6.93;100.00;97330.28;15278279;19;20013;-47
2023/03/25 22:10:15;;;;;;;2.20;0.70;;;;;;;6.77;100.00;97345.31;15276302;19;20025;-47
2023/03/25 22:15:39;;;;;;;2.90;0.70;;;;;;;6.73;100.00;97351.16;15284253;19;21394;-50
2023/03/25 22:21:12;;;;;;;2.30;0.70;;;;;;;6.82;100.00;97352.84;15280081;19;20020;-49
2023/03/25 22:26:41;;;;;;;3.40;0.90;;;;;;;6.88;100.00;97356.72;15283951;19;20025;-51
2023/03/25 22:32:07;;;;;;;2.60;0.73;;;;;;;6.88;100.00;97356.72;15277154;19;20024;-48
2023/03/25 22:37:35;;;;;;;1.85;0.60;;;;;;;7.01;100.00;97351.72;15282601;19;20274;-49
2023/03/25 22:43:00;;;;;;;1.60;0.60;;;;;;;7.11;100.00;97354.25;15274716;19;20018;-47
2023/03/25 22:48:24;;;;;;;1.88;0.50;;;;;;;7.14;100.00;97361.09;15281572;19;20082;31
2023/03/25 22:53:59;;;;;;;2.30;0.60;;;;;;;7.22;100.00;97356.59;15265876;19;20014;-49
2023/03/25 22:59:25;;;;;;;1.65;0.55;;;;;;;7.25;100.00;97368.81;15283346;19;20081;-50
2023/03/25 23:04:49;;;;;;;1.55;0.60;;;;;;;7.27;100.00;97372.16;15282534;19;20839;-49
2023/03/25 23:10:17;;;;;;;0.95;0.50;;;;;;;7.23;100.00;97369.00;15279336;19;20362;-52
2023/03/25 23:15:41;;;;;;;1.65;0.68;;;;;;;7.14;100.00;97374.50;15276111;19;20032;-51
2023/03/25 23:21:07;;;;;;;1.25;0.45;;;;;;;7.05;100.00;97371.00;15277930;19;20085;-51
2023/03/25 23:26:37;;;;;;;1.00;0.40;;;;;;;7.06;100.00;97378.84;15279618;19;20010;-52
2023/03/25 23:32:02;;;;;;;1.25;0.30;;;;;;;7.01;100.00;97380.34;15278047;19;20013;-50
2023/03/25 23:37:27;;;;;;;2.15;0.60;;;;;;;6.94;100.00;97385.50;15281916;19;20019;-49
2023/03/25 23:42:55;;;;;;;1.02;0.40;;;;;;;6.93;100.00;97381.16;15277629;19;20022;-52
2023/03/25 23:48:21;;;;;;;1.50;0.38;;;;;;;6.85;100.00;97389.19;15279292;19;20033;-49
2023/03/25 23:53:54;;;;;;;1.58;0.43;;;;;;;6.76;100.00;97399.00;15280873;19;20024;-49
2023/03/25 23:59:22;;;;;;;2.80;0.50;;;;;;;6.75;100.00;97400.88;15278395;19;20018;-50
